createdAt,value
2022-11-26T00:05:12.769Z,21
2022-11-26T00:10:50.583Z,20.9
2022-11-26T00:16:12.743Z,25.6
2022-11-26T00:21:50.722Z,26.4
2022-11-26T00:27:28.094Z,25.8
2022-11-26T00:32:50.207Z,24
2022-11-26T00:38:28.659Z,23.1
2022-11-26T00:44:08.506Z,22.4
2022-11-26T00:49:46.426Z,21.9
2022-11-26T00:55:09.350Z,21.6
2022-11-26T01:00:47.748Z,21.3
2022-11-26T01:06:25.564Z,21.1
2022-11-26T01:11:52.546Z,21.8
2022-11-26T01:17:31.686Z,25.7
2022-11-26T01:23:12.020Z,26.4
2022-11-26T01:28:38.154Z,25.6
2022-11-26T01:34:15.976Z,23.8
2022-11-26T01:39:53.599Z,22.8
2022-11-26T01:45:31.531Z,22.1
2022-11-26T01:51:09.753Z,21.6
2022-11-26T01:56:47.613Z,21.3
2022-11-26T02:02:16.523Z,21.1
2022-11-26T02:07:23.852Z,20.8
2022-11-26T02:13:01.128Z,21.5
2022-11-26T02:18:39.163Z,25.4
2022-11-26T02:24:16.886Z,26.6
2022-11-26T02:29:38.891Z,25.8
2022-11-26T02:35:07.267Z,24
2022-11-26T02:40:44.396Z,22.8
2022-11-26T02:45:35.652Z,22.1
2022-11-26T02:51:13.007Z,21.6
2022-11-26T02:56:55.714Z,21.3
2022-11-26T03:02:33.879Z,20.9
2022-11-26T03:08:12.865Z,23.9
2022-11-26T03:13:35.462Z,26.5
2022-11-26T03:19:13.916Z,26.4
2022-11-26T03:24:36.145Z,25.4
2022-11-26T03:29:42.950Z,23.5
2022-11-26T03:35:05.238Z,22.5
2022-11-26T03:40:42.960Z,21.9
2022-11-26T03:46:21.362Z,21.4
2022-11-26T03:57:21.204Z,20.8
2022-11-26T04:02:59.910Z,24.8
2022-11-26T04:08:22.114Z,27.1
2022-11-26T04:14:00.392Z,26.1
2022-11-26T04:19:38.193Z,24.6
2022-11-26T04:25:20.190Z,22.9
2022-11-26T04:30:57.236Z,22.1
2022-11-26T04:36:35.546Z,21.5
2022-11-26T04:42:18.244Z,21.2
2022-11-26T04:47:59.495Z,20.8
2022-11-26T04:53:36.958Z,23.3
2022-11-26T04:59:17.513Z,26.2
2022-11-26T05:05:00.302Z,23.7
2022-11-26T05:10:22.437Z,24.4
2022-11-26T05:15:45.045Z,26.9
2022-11-26T05:21:07.319Z,26.3
2022-11-26T05:26:29.737Z,24.9
2022-11-26T05:32:07.646Z,23.2
2022-11-26T05:37:31.344Z,22.3
2022-11-26T05:43:14.434Z,21.6
2022-11-26T05:48:36.672Z,21.2
2022-11-26T05:53:59.124Z,20.8
2022-11-26T05:59:40.889Z,22.1
2022-11-26T06:05:19.378Z,25.6
2022-11-26T06:11:01.642Z,27.1
2022-11-26T06:16:08.983Z,25.9
2022-11-26T06:21:46.645Z,24.2
2022-11-26T06:27:17.273Z,22.8
2022-11-26T06:33:00.509Z,21.9
2022-11-26T06:38:43.834Z,21.3
2022-11-26T06:44:06.198Z,20.9
2022-11-26T06:49:44.929Z,20.6
2022-11-26T06:55:28.264Z,23.5
2022-11-26T07:01:05.736Z,26.3
2022-11-26T07:06:47.935Z,26.5
2022-11-26T07:12:30.263Z,25.6
2022-11-26T07:18:08.252Z,23.4
2022-11-26T07:23:46.825Z,22.3
2022-11-26T07:29:09.571Z,21.6
2022-11-26T07:34:53.101Z,21.1
2022-11-26T07:40:34.541Z,20.8
2022-11-26T07:46:13.215Z,21
2022-11-26T07:51:53.676Z,25
2022-11-26T07:57:31.355Z,27
2022-11-26T08:03:09.924Z,26.1
2022-11-26T08:08:52.634Z,24.7
2022-11-26T08:14:30.893Z,22.7
2022-11-26T08:20:09.026Z,21.8
2022-11-26T08:26:06.405Z,21.2
2022-11-26T08:32:04.957Z,20.8
2022-11-26T08:38:15.539Z,20.4
2022-11-26T08:44:21.633Z,24.1
2022-11-26T08:49:45.289Z,26.8
2022-11-26T08:55:23.997Z,26.3
2022-11-26T09:01:21.200Z,25.2
2022-11-26T09:07:02.471Z,22.9
2022-11-26T09:12:40.160Z,22
2022-11-26T09:18:22.572Z,21.4
2022-11-26T09:29:23.002Z,20.6
2022-11-26T09:35:34.248Z,22.4
2022-11-26T09:41:12.000Z,25.9
2022-11-26T09:46:41.168Z,26.8
2022-11-26T09:52:39.238Z,25.9
2022-11-26T09:58:19.948Z,23.8
2022-11-26T10:03:59.932Z,22.3
2022-11-26T10:09:38.149Z,21.4
2022-11-26T10:15:57.996Z,20.9
2022-11-26T10:22:02.507Z,21.5
2022-11-26T10:27:25.987Z,25.4
2022-11-26T10:33:04.225Z,27.3
2022-11-26T10:38:47.649Z,26.3
2022-11-26T10:44:30.282Z,25.1
2022-11-26T10:50:32.137Z,23.9
2022-11-26T10:55:54.904Z,22.4
2022-11-26T11:01:33.252Z,25.8
2022-11-26T11:07:46.327Z,27.9
2022-11-26T11:13:24.449Z,26.4
2022-11-26T11:18:52.642Z,25
2022-11-26T11:25:07.286Z,23.8
2022-11-26T11:30:44.800Z,23.8
2022-11-26T11:36:23.570Z,26.6
2022-11-26T11:42:00.798Z,26.8
2022-11-26T11:47:38.443Z,25.9
2022-11-26T11:53:16.302Z,24.5
2022-11-26T11:58:52.741Z,23.3
2022-11-26T12:04:35.961Z,25.9
2022-11-26T12:09:58.686Z,27.1
2022-11-26T12:15:40.367Z,26.2
2022-11-26T12:21:25.803Z,24.9
2022-11-26T12:27:12.178Z,23.6
2022-11-26T12:32:34.463Z,24.1
2022-11-26T12:38:02.173Z,26.8
2022-11-26T12:43:46.906Z,26.6
2022-11-26T12:49:10.869Z,25.6
2022-11-26T12:54:33.129Z,24.3
2022-11-26T12:59:55.953Z,23.2
2022-11-26T13:06:21.580Z,24.4
2022-11-26T13:12:02.249Z,27.3
2022-11-26T13:17:25.821Z,26.2
2022-11-26T13:22:48.388Z,25.1
2022-11-26T13:28:13.146Z,23.9
2022-11-26T13:33:36.869Z,22.9
2022-11-26T13:38:58.582Z,23.9
2022-11-26T13:44:36.506Z,26.8
2022-11-26T13:50:15.491Z,26.4
2022-11-26T13:55:41.069Z,25.6
2022-11-26T14:01:10.201Z,24.3
2022-11-26T14:06:53.895Z,23.3
2022-11-26T14:12:01.089Z,22.2
2022-11-26T14:17:39.045Z,25.4
2022-11-26T14:23:20.945Z,26.9
2022-11-26T14:29:02.319Z,26.1
2022-11-26T14:34:41.907Z,24.8
2022-11-26T14:40:19.579Z,23.6
2022-11-26T14:46:00.243Z,22.6
2022-11-26T14:51:41.837Z,23.8
2022-11-26T14:57:04.575Z,26.8
2022-11-26T15:02:26.738Z,26.5
2022-11-26T15:08:05.755Z,25.8
2022-11-26T15:13:46.465Z,24.4
2022-11-26T15:19:25.268Z,23.1
2022-11-26T15:25:06.518Z,22.2
2022-11-26T15:30:44.457Z,25.4
2022-11-26T15:36:23.073Z,27.1
2022-11-26T15:42:01.167Z,26.1
2022-11-26T15:47:46.100Z,24.7
2022-11-26T15:53:05.438Z,23.4
2022-11-26T15:59:05.271Z,22.6
2022-11-26T16:04:49.080Z,24.2
2022-11-26T16:10:34.498Z,26.8
2022-11-26T16:15:56.575Z,26.1
2022-11-26T16:21:36.247Z,25
2022-11-26T16:27:13.963Z,22.9
2022-11-26T16:32:55.719Z,22
2022-11-26T16:39:08.859Z,21.3
2022-11-26T16:44:51.693Z,20.9
2022-11-26T16:50:31.411Z,20.5
2022-11-26T16:56:09.695Z,23
2022-11-26T17:01:33.904Z,26
2022-11-26T17:07:12.579Z,26.8
2022-11-26T17:12:56.186Z,25.8
2022-11-26T17:18:34.667Z,23.6
2022-11-26T17:23:57.395Z,22.3
2022-11-26T17:29:42.566Z,21.6
2022-11-26T17:35:05.625Z,21
2022-11-26T17:40:45.989Z,20.8
2022-11-26T17:45:58.037Z,20.4
2022-11-26T17:51:48.287Z,24.4
2022-11-26T17:57:25.997Z,26.7
2022-11-26T18:02:55.229Z,26.3
2022-11-26T18:08:18.504Z,25.2
2022-11-26T18:13:55.609Z,23
2022-11-26T18:19:18.266Z,21.9
2022-11-26T18:25:00.881Z,21.3
2022-11-26T18:30:22.234Z,20.8
2022-11-26T18:36:06.273Z,20.5
2022-11-26T18:41:29.065Z,22.9
2022-11-26T18:47:42.227Z,26
2022-11-26T18:53:08.808Z,26.7
2022-11-26T18:58:46.614Z,25.7
2022-11-26T19:04:30.172Z,23.6
2022-11-26T19:10:08.026Z,22.2
2022-11-26T19:15:46.116Z,21.4
2022-11-26T19:21:24.492Z,20.8
2022-11-26T19:27:06.565Z,20.6
2022-11-26T19:32:48.992Z,21.9
2022-11-26T19:38:27.217Z,25.3
2022-11-26T19:44:11.363Z,27.2
2022-11-26T19:49:49.592Z,26
2022-11-26T19:55:33.414Z,24.3
2022-11-26T20:01:11.732Z,22.4
2022-11-26T20:06:41.570Z,21.6
2022-11-26T20:12:08.230Z,20.9
2022-11-26T20:17:51.686Z,20.6
2022-11-26T20:23:34.865Z,20.3
2022-11-26T20:29:12.521Z,24.4
2022-11-26T20:34:54.122Z,26.5
2022-11-26T20:40:33.364Z,26.3
2022-11-26T20:46:13.910Z,25.3
2022-11-26T20:51:56.563Z,23
2022-11-26T20:57:24.740Z,21.8
2022-11-26T21:02:48.061Z,21.2
2022-11-26T21:08:12.317Z,20.6
2022-11-26T21:13:50.465Z,20.4
2022-11-26T21:19:35.606Z,22.7
2022-11-26T21:25:04.184Z,23.3
2022-11-26T21:30:42.808Z,21.9
2022-11-26T21:36:12.024Z,25.1
2022-11-26T21:41:49.448Z,26.9
2022-11-26T21:47:28.967Z,26
2022-11-26T21:52:51.369Z,24.7
2022-11-26T21:58:28.582Z,22.6
2022-11-26T22:04:07.830Z,21.6
2022-11-26T22:09:47.573Z,20.9
2022-11-26T22:15:09.491Z,20.6
2022-11-26T22:20:48.924Z,20.3
2022-11-26T22:25:54.828Z,24.1
2022-11-26T22:31:33.925Z,26
2022-11-26T22:37:12.297Z,26.7
2022-11-26T22:42:55.775Z,25.4
2022-11-26T22:48:33.794Z,23.4
2022-11-26T22:53:56.359Z,21.9
2022-11-26T22:59:39.480Z,21.3
2022-11-26T23:05:18.961Z,20.6
2022-11-26T23:10:42.547Z,20.3
2022-11-26T23:15:49.846Z,22.1
2022-11-26T23:20:57.319Z,24.7
2022-11-26T23:26:04.320Z,26.2
2022-11-26T23:31:48.952Z,26.7
2022-11-26T23:37:26.670Z,25.4
2022-11-26T23:43:08.531Z,23.4
2022-11-26T23:48:47.334Z,21.9
2022-11-26T23:54:10.402Z,21.2
2022-11-26T23:59:32.946Z,20.6
